createdAt,value
2019-01-25T00:05:52.303Z,12.9
2019-01-25T00:15:51.506Z,12.9
2019-01-25T00:25:50.712Z,12.9
2019-01-25T00:35:49.921Z,12.9
2019-01-25T00:45:49.128Z,12.8
2019-01-25T00:55:48.334Z,12.9
2019-01-25T01:05:47.543Z,12.8
2019-01-25T01:15:46.756Z,12.9
2019-01-25T01:25:45.956Z,12.8
2019-01-25T01:35:45.168Z,12.8
2019-01-25T01:45:44.392Z,12.8
2019-01-25T01:55:43.577Z,12.8
2019-01-25T02:05:42.783Z,12.8
2019-01-25T02:15:41.990Z,12.8
2019-01-25T02:25:41.198Z,12.8
2019-01-25T02:35:40.405Z,12.8
2019-01-25T02:45:39.661Z,12.8
2019-01-25T02:55:38.816Z,12.8
2019-01-25T03:05:38.024Z,12.8
2019-01-25T03:15:37.230Z,12.8
2019-01-25T03:25:36.486Z,12.8
2019-01-25T03:35:35.652Z,12.8
2019-01-25T03:45:34.853Z,12.4
2019-01-25T03:55:34.058Z,11.9
2019-01-25T04:05:33.262Z,12
2019-01-25T04:15:32.551Z,11.9
2019-01-25T04:25:31.675Z,11.9
2019-01-25T04:35:30.887Z,11.9
2019-01-25T04:45:30.095Z,11.9
2019-01-25T04:55:29.305Z,11.9
2019-01-25T05:05:28.519Z,11.6
2019-01-25T05:15:27.734Z,11.3
2019-01-25T05:25:26.949Z,11.3
2019-01-25T05:35:26.167Z,11.3
2019-01-25T05:45:25.377Z,11.4
2019-01-25T05:55:24.588Z,11.3
2019-01-25T06:05:23.800Z,11.3
2019-01-25T06:15:23.010Z,11.3
2019-01-25T06:25:22.231Z,11.3
2019-01-25T06:35:21.484Z,11.3
2019-01-25T06:45:20.634Z,11.2
2019-01-25T06:55:19.845Z,11.2
2019-01-25T07:05:19.051Z,11.2
2019-01-25T07:15:18.258Z,11.2
2019-01-25T07:25:17.464Z,11.2
2019-01-25T07:35:16.685Z,11.2
2019-01-25T07:45:15.878Z,11.2
2019-01-25T07:55:15.120Z,11.1
2019-01-25T08:05:14.292Z,11.1
2019-01-25T08:15:13.498Z,11.1
2019-01-25T08:25:12.704Z,11.1
2019-01-25T08:35:11.911Z,11.1
2019-01-25T08:45:11.130Z,11.1
2019-01-25T08:55:10.325Z,11.1
2019-01-25T09:05:09.844Z,11.1
2019-01-25T09:15:08.735Z,11.1
2019-01-25T09:25:07.970Z,11.1
2019-01-25T09:35:07.148Z,11.1
2019-01-25T09:45:06.354Z,11.1
2019-01-25T09:55:05.610Z,11.1
2019-01-25T10:05:04.767Z,11.1
2019-01-25T10:15:03.973Z,11.1
2019-01-25T10:25:03.179Z,11.1
2019-01-25T10:35:02.484Z,11.1
2019-01-25T10:45:04.321Z,11.1
2019-01-25T10:55:00.800Z,11.3
2019-01-25T11:05:00.013Z,11.2
2019-01-25T11:14:59.225Z,11.3
2019-01-25T11:24:58.438Z,11.2
2019-01-25T11:34:57.651Z,11.2
2019-01-25T11:44:56.866Z,11.2
2019-01-25T11:54:56.079Z,11.2
2019-01-25T12:04:55.290Z,11.2
2019-01-25T12:14:54.504Z,11.2
2019-01-25T12:24:53.714Z,11.2
2019-01-25T12:34:52.926Z,11.2
2019-01-25T12:44:52.136Z,11.2
2019-01-25T12:54:51.350Z,11.1
2019-01-25T13:04:50.559Z,11.1
2019-01-25T13:14:49.773Z,11.1
2019-01-25T13:24:48.983Z,11.1
2019-01-25T13:34:48.196Z,11.1
2019-01-25T13:44:47.405Z,11.1
2019-01-25T13:54:46.615Z,11.1
2019-01-25T14:04:45.827Z,11.1
2019-01-25T14:14:45.034Z,11
2019-01-25T14:24:44.247Z,11.1
2019-01-25T14:34:43.458Z,11
2019-01-25T14:44:42.671Z,11
2019-01-25T14:54:41.885Z,11
2019-01-25T15:04:41.091Z,11
2019-01-25T15:14:40.302Z,10.9
2019-01-25T15:24:39.518Z,11
2019-01-25T15:34:38.725Z,10.9
2019-01-25T15:44:37.937Z,10.9
2019-01-25T15:54:37.150Z,10.9
2019-01-25T16:04:36.365Z,10.9
2019-01-25T16:14:35.574Z,10.9
2019-01-25T16:24:34.788Z,10.9
2019-01-25T16:34:34.006Z,10.9
2019-01-25T16:44:33.210Z,10.1
2019-01-25T16:54:32.440Z,10.1
2019-01-25T17:04:31.633Z,9.8
2019-01-25T17:14:33.422Z,9.8
2019-01-25T17:24:30.059Z,9.8
2019-01-25T17:34:29.278Z,9.8
2019-01-25T17:44:28.493Z,9.8
2019-01-25T17:54:27.705Z,9.6
2019-01-25T18:04:26.920Z,9.7
2019-01-25T18:14:26.132Z,9.7
2019-01-25T18:24:25.344Z,9.7
2019-01-25T18:34:24.558Z,9.6
2019-01-25T18:44:23.767Z,9.7
2019-01-25T18:54:22.980Z,9.7
2019-01-25T19:04:22.191Z,9.6
2019-01-25T19:14:21.401Z,9.6
2019-01-25T19:24:20.662Z,9.6
2019-01-25T19:34:19.827Z,9.6
2019-01-25T19:44:19.043Z,9.3
2019-01-25T19:54:18.285Z,9.4
2019-01-25T20:04:17.474Z,9.4
2019-01-25T20:14:16.691Z,9.4
2019-01-25T20:24:15.905Z,9.4
2019-01-25T20:34:15.149Z,9.4
2019-01-25T20:44:14.334Z,9.4
2019-01-25T20:54:13.551Z,9.5
2019-01-25T21:04:12.773Z,9.4
2019-01-25T21:14:11.983Z,9.4
2019-01-25T21:24:11.198Z,9.4
2019-01-25T21:34:10.410Z,9.4
2019-01-25T21:44:09.625Z,9.4
2019-01-25T21:54:08.842Z,9.4
2019-01-25T22:04:08.056Z,9.4
2019-01-25T22:14:07.469Z,9.4
2019-01-25T22:24:06.479Z,9.4
2019-01-25T22:34:05.688Z,9.4
2019-01-25T22:44:04.899Z,9.3
2019-01-25T22:54:04.109Z,9.3
2019-01-25T23:04:03.318Z,9.3
2019-01-25T23:14:02.528Z,9.3
2019-01-25T23:24:01.738Z,9.3
2019-01-25T23:34:00.947Z,9.3
2019-01-25T23:44:00.152Z,9.3
2019-01-25T23:53:59.362Z,9.3
